createdAt,value
2022-11-27T00:01:35.673Z,10.82
2022-11-27T00:04:05.565Z,10.81
2022-11-27T00:06:35.140Z,10.78
2022-11-27T00:09:08.259Z,10.76
2022-11-27T00:11:36.083Z,10.74
2022-11-27T00:14:03.881Z,10.74
2022-11-27T00:16:31.746Z,10.72
2022-11-27T00:18:59.533Z,10.68
2022-11-27T00:21:33.613Z,10.66
2022-11-27T00:24:04.594Z,10.63
2022-11-27T00:26:37.602Z,10.63
2022-11-27T00:29:07.480Z,10.63
2022-11-27T00:31:37.582Z,10.60
2022-11-27T00:34:08.918Z,10.59
2022-11-27T00:36:38.268Z,10.60
2022-11-27T00:39:06.868Z,10.60
2022-11-27T00:41:34.843Z,10.60
2022-11-27T00:44:02.698Z,10.58
2022-11-27T00:46:33.210Z,10.59
2022-11-27T00:49:04.429Z,10.59
2022-11-27T00:51:32.606Z,10.58
2022-11-27T00:54:00.693Z,10.56
2022-11-27T00:56:33.295Z,10.55
2022-11-27T00:59:01.833Z,10.56
2022-11-27T01:01:36.723Z,10.56
2022-11-27T01:04:07.613Z,10.56
2022-11-27T01:06:35.300Z,10.58
2022-11-27T01:09:04.007Z,10.59
2022-11-27T01:11:34.544Z,10.59
2022-11-27T01:14:15.701Z,10.61
2022-11-27T01:16:44.163Z,10.62
2022-11-27T01:19:15.298Z,10.62
2022-11-27T01:21:43.952Z,10.65
2022-11-27T01:24:15.297Z,10.67
2022-11-27T01:26:44.497Z,10.70
2022-11-27T01:29:12.810Z,10.69
2022-11-27T01:31:40.667Z,10.69
2022-11-27T01:34:14.612Z,10.70
2022-11-27T01:36:43.096Z,10.71
2022-11-27T01:39:17.270Z,10.72
2022-11-27T01:41:47.572Z,10.72
2022-11-27T01:44:24.714Z,10.73
2022-11-27T01:47:05.193Z,10.74
2022-11-27T01:49:40.804Z,10.75
2022-11-27T01:52:15.521Z,10.77
2022-11-27T01:55:34.090Z,10.80
2022-11-27T01:58:13.491Z,10.83
2022-11-27T02:00:41.749Z,10.85
2022-11-27T02:03:09.852Z,10.85
2022-11-27T02:05:37.791Z,10.86
2022-11-27T02:08:13.888Z,10.86
2022-11-27T02:10:49.572Z,10.87
2022-11-27T02:13:30.485Z,10.89
2022-11-27T02:16:28.209Z,10.92
2022-11-27T02:19:14.136Z,10.94
2022-11-27T02:22:03.992Z,10.98
2022-11-27T02:25:28.043Z,10.99
2022-11-27T02:28:12.017Z,11.02
2022-11-27T02:30:51.714Z,11.03
2022-11-27T02:33:22.094Z,11.06
2022-11-27T02:36:04.057Z,11.07
2022-11-27T02:38:42.380Z,11.09
2022-11-27T02:41:19.279Z,11.11
2022-11-27T02:43:51.818Z,11.13
2022-11-27T02:46:21.457Z,11.12
2022-11-27T02:48:55.421Z,11.13
2022-11-27T02:51:37.243Z,11.14
2022-11-27T02:54:10.082Z,11.14
2022-11-27T02:56:41.651Z,11.14
2022-11-27T02:59:14.471Z,11.15
2022-11-27T03:01:51.922Z,11.18
2022-11-27T03:04:32.264Z,11.22
2022-11-27T03:07:06.944Z,11.27
2022-11-27T03:09:42.454Z,11.29
2022-11-27T03:12:12.397Z,11.30
2022-11-27T03:14:42.795Z,11.29
2022-11-27T03:17:39.952Z,11.30
2022-11-27T03:20:21.879Z,11.32
2022-11-27T03:22:49.784Z,11.34
2022-11-27T03:25:17.577Z,11.36
2022-11-27T03:27:55.239Z,11.41
2022-11-27T03:30:22.950Z,11.45
2022-11-27T03:32:50.831Z,11.45
2022-11-27T03:35:25.029Z,11.46
2022-11-27T03:37:54.435Z,11.48
2022-11-27T03:40:39.333Z,11.47
2022-11-27T03:43:18.725Z,11.51
2022-11-27T03:46:27.991Z,11.53
2022-11-27T03:49:27.508Z,11.56
2022-11-27T03:52:39.018Z,11.56
2022-11-27T03:55:28.618Z,11.57
2022-11-27T03:58:09.386Z,11.63
2022-11-27T04:00:43.249Z,11.68
2022-11-27T04:03:13.364Z,11.72
2022-11-27T04:05:41.093Z,11.73
2022-11-27T04:08:08.743Z,11.78
2022-11-27T04:10:36.445Z,11.82
2022-11-27T04:13:04.382Z,11.84
2022-11-27T04:15:32.178Z,11.84
2022-11-27T04:17:59.865Z,11.85
2022-11-27T04:20:29.422Z,11.85
2022-11-27T04:22:57.487Z,11.89
2022-11-27T04:25:25.577Z,11.92
2022-11-27T04:27:53.261Z,11.92
2022-11-27T04:30:21.047Z,11.94
2022-11-27T04:32:48.897Z,11.95
2022-11-27T04:35:16.729Z,11.97
2022-11-27T04:37:44.444Z,11.99
2022-11-27T04:40:13.010Z,12.00
2022-11-27T04:42:40.738Z,12.02
2022-11-27T04:45:09.422Z,12.02
2022-11-27T04:47:37.043Z,12.02
2022-11-27T04:50:05.716Z,12.02
2022-11-27T04:52:33.448Z,12.02
2022-11-27T04:55:01.175Z,11.99
2022-11-27T04:57:28.900Z,11.99
2022-11-27T04:59:56.617Z,12.00
2022-11-27T05:02:24.600Z,12.01
2022-11-27T05:04:52.418Z,12.03
2022-11-27T05:07:20.458Z,12.06
2022-11-27T05:09:48.371Z,12.07
2022-11-27T05:12:16.309Z,12.09
2022-11-27T05:14:44.013Z,12.09
2022-11-27T05:17:11.802Z,12.12
2022-11-27T05:19:39.444Z,12.15
2022-11-27T05:22:07.138Z,12.21
2022-11-27T05:24:34.868Z,12.21
2022-11-27T05:27:02.588Z,12.20
2022-11-27T05:29:30.293Z,12.19
2022-11-27T05:31:58.229Z,12.20
2022-11-27T05:34:25.971Z,12.22
2022-11-27T05:36:53.664Z,12.24
2022-11-27T05:39:22.144Z,12.25
2022-11-27T05:41:49.843Z,12.23
2022-11-27T05:44:17.570Z,12.20
2022-11-27T05:46:45.622Z,12.20
2022-11-27T05:49:15.942Z,12.22
2022-11-27T05:51:50.421Z,12.22
2022-11-27T05:54:19.005Z,12.26
2022-11-27T05:56:46.909Z,12.23
2022-11-27T05:59:15.412Z,12.23
2022-11-27T06:01:43.553Z,12.27
2022-11-27T06:04:11.223Z,12.31
2022-11-27T06:06:39.196Z,12.30
2022-11-27T06:09:12.183Z,12.34
2022-11-27T06:11:42.123Z,12.40
2022-11-27T06:14:11.206Z,12.39
2022-11-27T06:16:38.995Z,12.37
2022-11-27T06:19:07.901Z,12.37
2022-11-27T06:21:36.106Z,12.38
2022-11-27T06:24:04.206Z,12.42
2022-11-27T06:26:33.389Z,12.39
2022-11-27T06:29:01.743Z,12.39
2022-11-27T06:31:32.979Z,12.40
2022-11-27T06:34:01.492Z,12.39
2022-11-27T06:36:36.881Z,12.40
2022-11-27T06:39:07.205Z,12.47
2022-11-27T06:41:34.851Z,12.49
2022-11-27T06:44:03.688Z,12.53
2022-11-27T06:46:31.453Z,12.55
2022-11-27T06:48:59.403Z,12.53
2022-11-27T06:51:30.999Z,12.53
2022-11-27T06:54:02.238Z,12.62
2022-11-27T06:56:32.061Z,12.70
2022-11-27T06:59:02.001Z,12.74
2022-11-27T07:01:31.839Z,12.69
2022-11-27T07:03:59.755Z,12.67
2022-11-27T07:06:27.913Z,12.60
2022-11-27T07:08:56.194Z,12.55
2022-11-27T07:11:28.849Z,12.51
2022-11-27T07:14:00.362Z,12.48
2022-11-27T07:16:32.625Z,12.48
2022-11-27T07:19:04.873Z,12.50
2022-11-27T07:21:33.951Z,12.53
2022-11-27T07:24:01.783Z,12.58
2022-11-27T07:26:30.383Z,12.57
2022-11-27T07:28:58.432Z,12.56
2022-11-27T07:31:30.112Z,12.60
2022-11-27T07:33:58.669Z,12.67
2022-11-27T07:36:30.442Z,12.60
2022-11-27T07:38:58.584Z,12.57
2022-11-27T07:41:32.207Z,12.60
2022-11-27T07:44:03.601Z,12.59
2022-11-27T07:46:31.506Z,12.55
2022-11-27T07:49:00.493Z,12.54
2022-11-27T07:51:29.525Z,12.56
2022-11-27T07:53:57.388Z,12.59
2022-11-27T07:56:25.117Z,12.60
2022-11-27T07:58:52.810Z,12.57
2022-11-27T08:01:21.577Z,12.53
2022-11-27T08:03:50.089Z,12.51
2022-11-27T08:06:24.814Z,12.51
2022-11-27T08:08:55.921Z,12.50
2022-11-27T08:11:32.846Z,12.47
2022-11-27T08:14:04.717Z,12.47
2022-11-27T08:16:34.322Z,12.50
2022-11-27T08:19:02.776Z,12.58
2022-11-27T08:21:30.691Z,12.61
2022-11-27T08:23:58.399Z,12.62
2022-11-27T08:26:27.744Z,12.62
2022-11-27T08:28:57.433Z,12.60
2022-11-27T08:31:25.256Z,12.64
2022-11-27T08:33:53.171Z,12.67
2022-11-27T08:36:26.663Z,12.68
2022-11-27T08:38:55.756Z,12.73
2022-11-27T08:41:23.472Z,12.74
2022-11-27T08:43:51.400Z,12.76
2022-11-27T08:46:19.242Z,12.77
2022-11-27T08:48:47.048Z,12.77
2022-11-27T08:51:16.217Z,12.78
2022-11-27T08:53:45.600Z,12.78
2022-11-27T08:56:20.542Z,12.80
2022-11-27T08:58:48.970Z,12.84
2022-11-27T09:01:21.587Z,12.85
2022-11-27T09:03:49.991Z,12.85
2022-11-27T09:06:21.745Z,12.89
2022-11-27T09:08:50.473Z,12.92
2022-11-27T09:11:20.358Z,12.95
2022-11-27T09:13:49.146Z,12.97
2022-11-27T09:16:21.128Z,12.99
2022-11-27T09:18:51.884Z,12.99
2022-11-27T09:21:23.194Z,13.01
2022-11-27T09:23:59.952Z,13.04
2022-11-27T09:26:29.853Z,13.07
2022-11-27T09:28:59.226Z,13.12
2022-11-27T09:31:27.475Z,13.13
2022-11-27T09:33:55.405Z,13.12
2022-11-27T09:36:25.944Z,13.14
2022-11-27T09:38:54.581Z,13.14
2022-11-27T09:41:46.330Z,13.16
2022-11-27T09:44:39.730Z,13.23
2022-11-27T09:47:41.818Z,13.25
2022-11-27T09:50:34.032Z,13.27
2022-11-27T09:53:20.553Z,13.29
2022-11-27T09:55:53.140Z,13.27
2022-11-27T09:58:49.092Z,13.25
2022-11-27T10:01:34.866Z,13.30
2022-11-27T10:04:15.724Z,13.36
2022-11-27T10:07:35.741Z,13.36
2022-11-27T10:10:28.811Z,13.40
2022-11-27T10:13:33.124Z,13.42
2022-11-27T10:16:15.014Z,13.49
2022-11-27T10:18:57.319Z,13.53
2022-11-27T10:21:36.979Z,13.52
2022-11-27T10:24:27.653Z,13.51
2022-11-27T10:26:59.144Z,13.54
2022-11-27T10:29:45.719Z,13.63
2022-11-27T10:32:53.367Z,13.65
2022-11-27T10:35:24.437Z,13.67
2022-11-27T10:38:14.757Z,13.68
2022-11-27T10:41:03.793Z,13.65
2022-11-27T10:43:32.277Z,13.70
2022-11-27T10:46:14.833Z,13.70
2022-11-27T10:48:42.595Z,13.68
2022-11-27T10:51:17.971Z,13.65
2022-11-27T10:53:50.894Z,13.67
2022-11-27T10:56:33.917Z,13.69
2022-11-27T10:59:13.466Z,13.72
2022-11-27T11:01:53.403Z,13.78
2022-11-27T11:04:38.775Z,13.85
2022-11-27T11:07:28.539Z,13.90
2022-11-27T11:09:56.646Z,13.98
2022-11-27T11:12:24.508Z,14.02
2022-11-27T11:14:59.190Z,14.02
2022-11-27T11:17:37.149Z,14.07
2022-11-27T11:20:25.006Z,14.09
2022-11-27T11:22:52.809Z,14.02
2022-11-27T11:25:21.979Z,13.91
2022-11-27T11:27:52.556Z,13.88
2022-11-27T11:30:30.099Z,13.84
2022-11-27T11:33:03.670Z,13.85
2022-11-27T11:35:36.548Z,13.88
2022-11-27T11:38:16.709Z,13.90
2022-11-27T11:41:03.412Z,13.95
2022-11-27T11:43:35.678Z,14.00
2022-11-27T11:46:24.446Z,14.09
2022-11-27T11:48:54.129Z,14.16
2022-11-27T11:51:50.386Z,14.21
2022-11-27T11:54:30.897Z,14.21
2022-11-27T11:57:05.035Z,14.21
2022-11-27T12:00:12.961Z,14.15
2022-11-27T12:03:13.852Z,14.11
2022-11-27T12:06:21.330Z,14.14
2022-11-27T12:09:17.956Z,14.14
2022-11-27T12:12:12.173Z,14.17
2022-11-27T12:15:02.848Z,14.24
2022-11-27T12:17:52.193Z,14.27
2022-11-27T12:20:38.516Z,14.25
2022-11-27T12:23:49.390Z,14.23
2022-11-27T12:26:33.901Z,14.14
2022-11-27T12:29:32.137Z,14.04
2022-11-27T12:32:20.792Z,13.99
2022-11-27T12:35:06.399Z,13.92
2022-11-27T12:37:54.947Z,13.93
2022-11-27T12:40:56.112Z,13.97
2022-11-27T12:43:37.503Z,13.93
2022-11-27T12:46:31.360Z,13.92
2022-11-27T12:49:10.323Z,13.95
2022-11-27T12:51:46.401Z,14.01
2022-11-27T12:54:32.616Z,14.08
2022-11-27T12:57:07.964Z,14.15
2022-11-27T12:59:56.781Z,14.19
2022-11-27T13:02:46.649Z,14.16
2022-11-27T13:05:29.862Z,14.17
2022-11-27T13:08:10.956Z,14.28
2022-11-27T13:10:47.452Z,14.35
2022-11-27T13:13:40.402Z,14.38
2022-11-27T13:16:24.027Z,14.34
2022-11-27T13:19:01.269Z,14.41
2022-11-27T13:21:34.052Z,14.45
2022-11-27T13:24:03.114Z,14.38
2022-11-27T13:26:40.468Z,14.28
2022-11-27T13:29:32.857Z,14.18
2022-11-27T13:32:05.863Z,14.07
2022-11-27T13:34:43.586Z,14.02
2022-11-27T13:37:35.325Z,13.95
2022-11-27T13:40:20.889Z,13.95
2022-11-27T13:42:55.428Z,14.00
2022-11-27T13:45:28.199Z,13.94
2022-11-27T13:47:59.575Z,13.85
2022-11-27T13:50:31.330Z,13.78
2022-11-27T13:53:04.446Z,13.76
2022-11-27T13:55:40.377Z,13.70
2022-11-27T13:58:08.246Z,13.68
2022-11-27T14:00:45.165Z,13.65
2022-11-27T14:03:29.576Z,13.63
2022-11-27T14:05:57.918Z,13.59
2022-11-27T14:08:35.235Z,13.58
2022-11-27T14:11:08.576Z,13.52
2022-11-27T14:13:42.095Z,13.50
2022-11-27T14:16:36.297Z,13.48
2022-11-27T14:19:30.623Z,13.45
2022-11-27T14:22:13.345Z,13.49
2022-11-27T14:24:46.596Z,13.51
2022-11-27T14:27:23.161Z,13.60
2022-11-27T14:29:52.233Z,13.61
2022-11-27T14:32:21.280Z,13.52
2022-11-27T14:34:49.274Z,13.50
2022-11-27T14:37:23.451Z,13.49
2022-11-27T14:39:51.585Z,13.45
2022-11-27T14:42:30.232Z,13.46
2022-11-27T14:45:15.984Z,13.45
2022-11-27T14:47:54.897Z,13.35
2022-11-27T14:50:23.084Z,13.34
2022-11-27T14:52:57.066Z,13.30
2022-11-27T14:55:31.578Z,13.29
2022-11-27T14:58:02.479Z,13.32
2022-11-27T15:00:34.268Z,13.39
2022-11-27T15:03:10.448Z,13.43
2022-11-27T15:05:39.142Z,13.40
2022-11-27T15:08:10.257Z,13.38
2022-11-27T15:10:41.156Z,13.34
2022-11-27T15:13:23.275Z,13.28
2022-11-27T15:16:03.464Z,13.30
2022-11-27T15:18:35.860Z,13.24
2022-11-27T15:21:11.801Z,13.23
2022-11-27T15:23:46.891Z,13.17
2022-11-27T15:26:30.280Z,13.17
2022-11-27T15:28:58.464Z,13.19
2022-11-27T15:31:35.433Z,13.11
2022-11-27T15:34:04.095Z,12.97
2022-11-27T15:36:40.504Z,12.91
2022-11-27T15:39:35.055Z,12.86
2022-11-27T15:42:08.520Z,12.76
2022-11-27T15:44:36.975Z,12.68
2022-11-27T15:47:07.031Z,12.62
2022-11-27T15:49:34.810Z,12.53
2022-11-27T15:52:02.517Z,12.49
2022-11-27T15:54:30.160Z,12.41
2022-11-27T15:56:57.832Z,12.36
2022-11-27T15:59:27.213Z,12.34
2022-11-27T16:01:56.073Z,12.31
2022-11-27T16:04:24.076Z,12.26
2022-11-27T16:06:51.795Z,12.19
2022-11-27T16:09:19.809Z,12.12
2022-11-27T16:11:47.912Z,12.13
2022-11-27T16:14:16.161Z,12.14
2022-11-27T16:16:44.034Z,12.13
2022-11-27T16:19:15.130Z,12.10
2022-11-27T16:21:43.420Z,12.06
2022-11-27T16:24:14.676Z,12.03
2022-11-27T16:26:42.769Z,12.06
2022-11-27T16:29:10.864Z,12.02
2022-11-27T16:31:40.450Z,12.03
2022-11-27T16:34:08.404Z,12.04
2022-11-27T16:36:43.731Z,12.04
2022-11-27T16:39:12.269Z,11.98
2022-11-27T16:41:40.419Z,11.96
2022-11-27T16:44:14.363Z,11.98
2022-11-27T16:46:44.453Z,11.93
2022-11-27T16:49:12.993Z,11.91
2022-11-27T16:51:41.854Z,11.90
2022-11-27T16:54:13.673Z,11.89
2022-11-27T16:56:43.450Z,11.86
2022-11-27T16:59:14.593Z,11.87
2022-11-27T17:01:42.955Z,11.83
2022-11-27T17:04:18.625Z,11.77
2022-11-27T17:06:48.983Z,11.77
2022-11-27T17:09:18.111Z,11.83
2022-11-27T17:11:50.665Z,11.83
2022-11-27T17:14:20.407Z,11.88
2022-11-27T17:16:49.516Z,11.92
2022-11-27T17:19:18.676Z,11.85
2022-11-27T17:21:46.568Z,11.85
2022-11-27T17:24:16.598Z,11.80
2022-11-27T17:26:48.216Z,11.80
2022-11-27T17:29:19.065Z,11.80
2022-11-27T17:31:47.444Z,11.76
2022-11-27T17:34:17.380Z,11.77
2022-11-27T17:36:45.918Z,11.78
2022-11-27T17:39:15.038Z,11.81
2022-11-27T17:41:45.051Z,11.91
2022-11-27T17:44:13.458Z,11.91
2022-11-27T17:46:41.848Z,11.76
2022-11-27T17:49:10.779Z,11.68
2022-11-27T17:51:41.188Z,11.69
2022-11-27T17:54:11.359Z,11.70
2022-11-27T17:56:39.664Z,11.72
2022-11-27T17:59:09.297Z,11.82
2022-11-27T18:01:37.553Z,11.86
2022-11-27T18:04:06.359Z,11.89
2022-11-27T18:06:35.880Z,11.87
2022-11-27T18:09:04.806Z,11.83
2022-11-27T18:11:36.306Z,11.75
2022-11-27T18:14:05.098Z,11.78
2022-11-27T18:16:37.685Z,11.79
2022-11-27T18:19:08.031Z,11.79
2022-11-27T18:21:37.106Z,11.73
2022-11-27T18:24:23.530Z,11.67
2022-11-27T18:27:10.096Z,11.68
2022-11-27T18:29:42.655Z,11.69
2022-11-27T18:32:12.655Z,11.73
2022-11-27T18:34:42.345Z,11.72
2022-11-27T18:37:11.314Z,11.68
2022-11-27T18:39:40.415Z,11.69
2022-11-27T18:42:08.620Z,11.74
2022-11-27T18:44:41.315Z,11.81
2022-11-27T18:47:14.891Z,11.79
2022-11-27T18:49:44.899Z,11.78
2022-11-27T18:52:13.872Z,11.83
2022-11-27T18:54:42.003Z,11.80
2022-11-27T18:57:11.055Z,11.73
2022-11-27T18:59:42.549Z,11.66
2022-11-27T19:02:11.364Z,11.72
2022-11-27T19:04:39.678Z,11.74
2022-11-27T19:07:07.570Z,11.73
2022-11-27T19:09:35.289Z,11.73
2022-11-27T19:12:03.893Z,11.71
2022-11-27T19:14:33.568Z,11.69
2022-11-27T19:17:01.565Z,11.66
2022-11-27T19:22:20.925Z,11.74
2022-11-27T19:24:48.783Z,11.86
2022-11-27T19:27:16.570Z,11.92
2022-11-27T19:29:44.768Z,11.86
2022-11-27T19:32:13.110Z,11.80
2022-11-27T19:34:41.814Z,11.74
2022-11-27T19:37:09.982Z,11.79
2022-11-27T19:39:37.931Z,11.83
2022-11-27T19:42:06.224Z,11.85
2022-11-27T19:44:34.031Z,11.79
2022-11-27T19:47:02.092Z,11.79
2022-11-27T19:49:29.919Z,11.77
2022-11-27T19:51:58.482Z,11.75
2022-11-27T19:54:26.616Z,11.71
2022-11-27T19:56:55.170Z,11.71
2022-11-27T19:59:25.886Z,11.68
2022-11-27T20:01:54.894Z,11.61
2022-11-27T20:04:26.024Z,11.60
2022-11-27T20:06:53.733Z,11.58
2022-11-27T20:09:21.722Z,11.52
2022-11-27T20:11:49.376Z,11.48
2022-11-27T20:14:17.453Z,11.43
2022-11-27T20:16:45.453Z,11.41
2022-11-27T20:19:13.361Z,11.38
2022-11-27T20:21:42.522Z,11.41
2022-11-27T20:24:10.963Z,11.43
2022-11-27T20:26:42.591Z,11.43
2022-11-27T20:29:13.023Z,11.43
2022-11-27T20:31:44.482Z,11.44
2022-11-27T20:34:20.728Z,11.40
2022-11-27T20:36:49.149Z,11.36
2022-11-27T20:39:21.366Z,11.30
2022-11-27T20:41:51.717Z,11.23
2022-11-27T20:44:22.253Z,11.20
2022-11-27T20:46:51.156Z,11.15
2022-11-27T20:49:20.536Z,11.11
2022-11-27T20:51:51.392Z,11.05
2022-11-27T20:54:22.888Z,10.99
2022-11-27T20:56:51.225Z,10.95
2022-11-27T20:59:19.779Z,10.93
2022-11-27T21:01:49.181Z,10.91
2022-11-27T21:04:25.656Z,10.91
2022-11-27T21:06:54.027Z,10.88
2022-11-27T21:09:21.933Z,10.80
2022-11-27T21:11:49.866Z,10.81
2022-11-27T21:14:17.809Z,10.83
2022-11-27T21:16:49.679Z,10.87
2022-11-27T21:19:23.004Z,10.84
2022-11-27T21:21:52.952Z,10.79
2022-11-27T21:24:25.713Z,10.76
2022-11-27T21:26:53.617Z,10.69
2022-11-27T21:29:25.310Z,10.64
2022-11-27T21:31:55.141Z,10.57
2022-11-27T21:34:24.044Z,10.53
2022-11-27T21:36:51.801Z,10.51
2022-11-27T21:39:22.510Z,10.47
2022-11-27T21:41:54.143Z,10.44
2022-11-27T21:44:24.765Z,10.41
2022-11-27T21:46:52.555Z,10.39
2022-11-27T21:49:20.922Z,10.39
2022-11-27T21:51:53.618Z,10.38
2022-11-27T21:54:24.493Z,10.34
2022-11-27T21:56:52.850Z,10.33
2022-11-27T21:59:20.627Z,10.35
2022-11-27T22:01:48.452Z,10.32
2022-11-27T22:04:16.629Z,10.28
2022-11-27T22:06:45.229Z,10.26
2022-11-27T22:09:15.741Z,10.29
2022-11-27T22:11:46.455Z,10.26
2022-11-27T22:14:16.147Z,10.31
2022-11-27T22:16:46.446Z,10.33
2022-11-27T22:19:16.238Z,10.33
2022-11-27T22:21:45.099Z,10.25
2022-11-27T22:24:18.811Z,10.14
2022-11-27T22:26:48.833Z,10.06
2022-11-27T22:29:16.765Z,10.02
2022-11-27T22:31:44.655Z,10.06
2022-11-27T22:34:12.349Z,10.07
2022-11-27T22:36:40.681Z,10.03
2022-11-27T22:39:09.136Z,10.01
2022-11-27T22:41:40.067Z,9.98
2022-11-27T22:44:20.788Z,9.93
2022-11-27T22:46:49.647Z,9.89
2022-11-27T22:49:18.851Z,9.84
2022-11-27T22:51:47.273Z,9.81
2022-11-27T22:54:19.586Z,9.77
2022-11-27T22:56:47.317Z,9.73
2022-11-27T22:59:33.722Z,9.70
2022-11-27T23:02:05.055Z,9.73
2022-11-27T23:04:35.866Z,9.73
2022-11-27T23:07:05.940Z,9.73
2022-11-27T23:09:34.728Z,9.75
2022-11-27T23:12:02.466Z,9.71
2022-11-27T23:14:30.163Z,9.66
2022-11-27T23:16:58.505Z,9.61
2022-11-27T23:19:26.416Z,9.61
2022-11-27T23:21:54.409Z,9.55
2022-11-27T23:24:22.285Z,9.49
2022-11-27T23:26:50.112Z,9.42
2022-11-27T23:29:17.812Z,9.49
2022-11-27T23:31:45.540Z,9.47
2022-11-27T23:34:15.851Z,9.40
2022-11-27T23:36:43.827Z,9.35
2022-11-27T23:39:14.159Z,9.36
2022-11-27T23:41:42.850Z,9.34
2022-11-27T23:44:11.041Z,9.25
2022-11-27T23:46:38.776Z,9.16
2022-11-27T23:49:06.761Z,9.11
2022-11-27T23:51:34.591Z,9.12
2022-11-27T23:54:07.134Z,9.07
2022-11-27T23:56:36.328Z,8.98
2022-11-27T23:59:04.572Z,9.01
